Time;durP1;ratioP1;P1;durP2;ratioP2;P2;SDS_P1;SDS_P2;PMS_P1;PMS_P2;Temp;Humidity;BMP_temperature;BMP_pressure;BME280_temperature;BME280_humidity;BME280_pressure;Samples;Min_cycle;Max_cycle;Signal;HPM_P1;HPM_P2
2022/11/18 00:00:18;;;;;;;25.13;17.15;;;16.70;99.90;;;;;;4991662;28;20049;-71
2022/11/18 00:03:22;;;;;;;25.95;16.33;;;16.60;99.90;;;;;;4991843;28;20501;-70
2022/11/18 00:06:29;;;;;;;28.20;16.75;;;16.60;99.90;;;;;;4991541;28;20053;-72
2022/11/18 00:09:32;;;;;;;24.92;15.38;;;16.60;99.90;;;;;;4991475;28;20648;-71
2022/11/18 00:16:09;;;;;;;22.35;13.60;;;16.50;99.90;;;;;;4977039;28;20041;-71
2022/11/18 00:19:18;;;;;;;21.48;11.07;;;16.50;99.90;;;;;;4991424;28;20061;-70
2022/11/18 00:22:22;;;;;;;23.05;10.55;;;16.60;99.90;;;;;;4991689;28;20102;-71
2022/11/18 00:25:26;;;;;;;18.75;10.77;;;16.60;99.90;;;;;;4992733;28;20045;-71
2022/11/18 00:28:31;;;;;;;21.63;11.65;;;16.60;99.90;;;;;;4995216;28;20538;-71
2022/11/18 00:31:36;;;;;;;20.67;11.18;;;16.60;99.90;;;;;;4995003;28;20153;-72
2022/11/18 00:34:41;;;;;;;23.70;9.95;;;16.60;99.90;;;;;;4995243;28;20041;-72
2022/11/18 00:37:45;;;;;;;14.73;7.40;;;16.60;99.90;;;;;;4995471;28;20406;-71
2022/11/18 00:40:49;;;;;;;14.82;7.70;;;16.60;99.90;;;;;;4994443;28;20537;-71
2022/11/18 00:43:52;;;;;;;14.07;6.50;;;16.60;99.90;;;;;;5005598;28;20053;-71
2022/11/18 00:46:57;;;;;;;13.40;5.97;;;16.70;99.90;;;;;;4995381;28;20041;-71
2022/11/18 00:50:01;;;;;;;11.55;5.43;;;16.70;99.90;;;;;;4994982;28;20045;-72
2022/11/18 00:53:05;;;;;;;12.98;6.32;;;16.80;99.90;;;;;;4994757;28;20069;-71
2022/11/18 00:56:09;;;;;;;11.20;6.22;;;16.70;99.90;;;;;;4994714;28;20050;-71
2022/11/18 00:59:13;;;;;;;12.05;6.07;;;16.70;99.90;;;;;;4994568;28;20084;-71
2022/11/18 01:02:17;;;;;;;14.65;6.25;;;16.70;99.90;;;;;;4994085;28;20058;-71
2022/11/18 01:05:21;;;;;;;15.80;6.57;;;16.70;99.90;;;;;;4994664;28;20045;-71
2022/11/18 01:08:25;;;;;;;12.18;6.50;;;16.70;99.90;;;;;;4994814;28;20045;-71
2022/11/18 01:14:52;;;;;;;14.60;7.38;;;16.50;99.90;;;;;;4994088;28;20057;-72
2022/11/18 01:17:56;;;;;;;16.85;8.52;;;16.40;99.90;;;;;;4994408;28;20065;-73
2022/11/18 01:21:01;;;;;;;16.45;8.43;;;16.20;99.90;;;;;;4994626;28;20049;-72
2022/11/18 01:24:05;;;;;;;15.18;9.00;;;16.10;99.90;;;;;;5005581;28;20246;-71
2022/11/18 01:27:09;;;;;;;14.75;8.32;;;16.10;99.90;;;;;;4994469;28;20045;-70
2022/11/18 01:30:15;;;;;;;15.65;8.98;;;16.10;99.90;;;;;;4994205;28;20070;-70
2022/11/18 01:33:19;;;;;;;18.13;10.20;;;16.10;99.90;;;;;;4994313;28;20057;-70
2022/11/18 01:36:26;;;;;;;23.98;10.15;;;16.10;99.90;;;;;;4994058;28;20045;-69
2022/11/18 01:39:30;;;;;;;15.98;8.90;;;16.10;99.90;;;;;;4993780;28;20061;-72
2022/11/18 01:42:34;;;;;;;14.75;8.13;;;16.10;99.90;;;;;;4993484;28;20056;-71
2022/11/18 01:45:40;;;;;;;18.98;9.52;;;16.10;99.90;;;;;;5004660;28;20406;-71
2022/11/18 01:48:51;;;;;;;20.38;8.07;;;16.10;99.90;;;;;;5004758;28;20045;-71
2022/11/18 01:51:57;;;;;;;19.70;8.27;;;16.10;99.90;;;;;;4993730;28;20053;-71
2022/11/18 01:55:16;;;;;;;19.15;7.80;;;16.10;99.90;;;;;;4993974;28;20045;-70
2022/11/18 01:58:35;;;;;;;19.85;7.85;;;16.00;99.90;;;;;;4994020;28;20374;-71
2022/11/18 02:01:39;;;;;;;12.88;7.38;;;15.90;99.90;;;;;;4993756;28;20053;-71
2022/11/18 02:04:48;;;;;;;16.20;6.40;;;15.90;99.90;;;;;;4993929;28;20042;-71
2022/11/18 02:07:52;;;;;;;12.80;5.95;;;15.90;99.90;;;;;;4993442;28;20513;-70
2022/11/18 02:10:56;;;;;;;16.20;5.75;;;15.80;99.90;;;;;;4993450;28;20161;-70
2022/11/18 02:14:03;;;;;;;11.55;5.55;;;15.80;99.90;;;;;;4993429;28;20053;-71
2022/11/18 02:17:10;;;;;;;16.35;5.72;;;15.80;99.90;;;;;;4993445;28;20045;-69
2022/11/18 02:20:29;;;;;;;13.57;5.88;;;15.80;99.90;;;;;;4993229;28;20061;-71
2022/11/18 02:23:53;;;;;;;16.55;5.75;;;15.80;99.90;;;;;;4993171;28;20041;-70
2022/11/18 02:27:03;;;;;;;11.18;6.13;;;15.80;99.90;;;;;;4993568;28;20530;-70
2022/11/18 02:30:12;;;;;;;12.82;5.78;;;15.90;99.90;;;;;;4993269;28;20050;-71
2022/11/18 02:33:48;;;;;;;17.13;7.07;;;15.90;99.90;;;;;;4993125;28;20041;-71
2022/11/18 02:36:58;;;;;;;16.90;6.55;;;15.80;99.90;;;;;;4993263;28;20114;-71
2022/11/18 02:40:08;;;;;;;13.55;6.40;;;15.80;99.90;;;;;;4992941;28;20058;-70
2022/11/18 02:43:29;;;;;;;13.95;6.38;;;15.60;99.90;;;;;;4993103;28;20049;-71
2022/11/18 02:46:36;;;;;;;16.95;6.15;;;15.60;99.90;;;;;;4993068;28;20053;-71
2022/11/18 02:49:48;;;;;;;15.00;5.40;;;15.60;99.90;;;;;;4992902;28;20485;-69
2022/11/18 02:52:56;;;;;;;9.90;5.28;;;15.60;99.90;;;;;;4992784;28;20057;-71
2022/11/18 02:56:02;;;;;;;11.27;5.30;;;15.60;99.90;;;;;;4992379;28;20037;-72
2022/11/18 02:59:05;;;;;;;13.25;5.28;;;15.60;99.90;;;;;;4992437;28;20506;-71
2022/11/18 03:02:15;;;;;;;14.60;4.80;;;15.60;99.90;;;;;;4992602;28;20083;-71
2022/11/18 03:05:42;;;;;;;10.05;4.47;;;15.50;99.90;;;;;;4992519;28;20038;-72
2022/11/18 03:09:21;;;;;;;12.82;4.80;;;15.60;99.90;;;;;;4992408;28;20410;-71
2022/11/18 03:12:31;;;;;;;11.30;4.38;;;15.60;99.90;;;;;;4992247;28;20390;-71
2022/11/18 03:15:48;;;;;;;11.68;4.60;;;15.60;99.90;;;;;;4992588;28;20045;-71
2022/11/18 03:19:08;;;;;;;12.25;4.93;;;15.60;99.90;;;;;;4992214;28;20045;-71
2022/11/18 03:22:25;;;;;;;11.55;4.85;;;15.60;99.90;;;;;;4992393;28;20104;-70
2022/11/18 03:25:29;;;;;;;10.45;4.30;;;15.60;99.90;;;;;;4992328;28;20041;-70
2022/11/18 03:28:43;;;;;;;14.45;4.32;;;15.60;99.90;;;;;;4992461;28;20069;-72
2022/11/18 03:31:49;;;;;;;11.07;4.47;;;15.70;99.90;;;;;;4991715;28;20045;-71
2022/11/18 03:35:08;;;;;;;7.05;3.20;;;15.70;99.90;;;;;;4992095;28;20398;-71
2022/11/18 03:38:18;;;;;;;6.95;2.97;;;15.80;99.90;;;;;;4992402;28;20053;-71
2022/11/18 03:41:24;;;;;;;9.95;3.50;;;15.90;99.90;;;;;;4991589;28;20053;-71
2022/11/18 03:44:32;;;;;;;10.65;3.90;;;15.90;99.90;;;;;;4991651;28;20046;-71
2022/11/18 03:48:03;;;;;;;6.32;3.30;;;15.90;99.90;;;;;;4991813;28;20058;-70
2022/11/18 03:51:10;;;;;;;10.57;4.10;;;15.90;99.90;;;;;;4991799;28;20041;-72
2022/11/18 03:54:26;;;;;;;10.73;3.65;;;15.90;99.90;;;;;;4992098;28;20054;-72
2022/11/18 03:57:42;;;;;;;7.10;3.22;;;16.00;99.90;;;;;;4991936;28;20422;-71
2022/11/18 04:00:50;;;;;;;10.02;3.03;;;16.00;99.90;;;;;;4991247;28;20057;-71
2022/11/18 04:03:54;;;;;;;7.30;3.35;;;16.00;99.90;;;;;;4991911;28;20049;-71
2022/11/18 04:07:11;;;;;;;7.53;3.47;;;16.00;99.90;;;;;;4991536;28;20046;-71
2022/11/18 04:10:19;;;;;;;9.20;3.45;;;16.00;99.90;;;;;;4991708;28;20053;-71
2022/11/18 04:13:35;;;;;;;10.02;3.75;;;16.10;99.90;;;;;;4991781;28;20057;-71
2022/11/18 04:16:44;;;;;;;9.82;3.28;;;16.00;99.90;;;;;;4991486;28;20045;-71
2022/11/18 04:19:50;;;;;;;10.73;3.35;;;15.80;99.90;;;;;;4991512;28;20062;-71
2022/11/18 04:22:54;;;;;;;10.90;3.88;;;15.70;99.90;;;;;;4991539;28;20073;-71
2022/11/18 04:25:58;;;;;;;11.85;4.50;;;15.60;99.90;;;;;;4991338;28;20045;-71
2022/11/18 04:29:02;;;;;;;7.35;3.60;;;15.50;99.90;;;;;;4991561;28;20402;-70
2022/11/18 04:32:06;;;;;;;7.75;3.55;;;15.60;99.90;;;;;;4991134;28;20073;-71
2022/11/18 04:35:10;;;;;;;9.57;4.15;;;15.70;99.90;;;;;;4991299;28;20398;-69
2022/11/18 04:38:14;;;;;;;11.55;4.47;;;15.60;99.90;;;;;;4991597;28;20049;-71
2022/11/18 04:41:18;;;;;;;8.98;3.78;;;15.70;99.90;;;;;;4991239;28;20609;-71
2022/11/18 04:44:27;;;;;;;10.65;4.88;;;15.70;99.90;;;;;;4991608;28;20050;-70
2022/11/18 04:47:31;;;;;;;12.13;4.70;;;15.80;99.90;;;;;;4991372;28;20049;-71
2022/11/18 04:50:35;;;;;;;13.10;3.95;;;15.70;99.90;;;;;;4991385;28;20644;-71
2022/11/18 04:53:38;;;;;;;11.77;4.13;;;15.60;99.90;;;;;;4991132;28;20045;-72
2022/11/18 04:56:43;;;;;;;14.00;4.45;;;15.60;99.90;;;;;;4991349;28;20092;-71
2022/11/18 04:59:47;;;;;;;12.65;4.40;;;15.50;99.90;;;;;;4991368;28;20057;-70
2022/11/18 05:02:51;;;;;;;10.68;4.65;;;15.50;99.90;;;;;;4991139;28;20045;-72
2022/11/18 05:05:55;;;;;;;11.55;4.35;;;15.50;99.90;;;;;;4991392;28;20513;-71
2022/11/18 05:09:00;;;;;;;14.30;4.00;;;15.50;99.90;;;;;;4990958;28;20045;-71
2022/11/18 05:15:26;;;;;;;10.25;4.00;;;15.70;99.90;;;;;;4994652;28;20057;-71
2022/11/18 05:18:30;;;;;;;9.00;4.25;;;15.70;99.90;;;;;;4994725;28;20057;-72
2022/11/18 05:21:34;;;;;;;10.27;4.03;;;15.80;99.90;;;;;;4994349;28;20049;-71
2022/11/18 05:24:38;;;;;;;12.32;4.25;;;15.80;99.90;;;;;;4994605;28;20045;-71
2022/11/18 05:27:42;;;;;;;7.93;4.28;;;15.80;99.90;;;;;;4994554;28;20406;-71
2022/11/18 05:30:46;;;;;;;11.73;4.05;;;15.80;99.90;;;;;;5004602;28;20421;-71
2022/11/18 05:33:50;;;;;;;12.32;5.00;;;15.80;99.90;;;;;;4994088;28;20041;-71
2022/11/18 05:36:54;;;;;;;9.50;3.70;;;15.90;99.90;;;;;;4994270;28;20053;-70
2022/11/18 05:39:58;;;;;;;9.85;3.70;;;15.90;99.90;;;;;;4994113;28;20430;-70
2022/11/18 05:43:10;;;;;;;13.13;4.07;;;16.00;99.90;;;;;;4993845;28;20050;-70
2022/11/18 05:46:14;;;;;;;7.30;3.13;;;16.00;99.90;;;;;;4993908;28;20042;-71
2022/11/18 05:49:18;;;;;;;7.90;3.25;;;16.10;99.90;;;;;;4994194;28;20065;-71
2022/11/18 05:52:22;;;;;;;8.27;3.15;;;16.20;99.90;;;;;;4993728;28;20065;-71
2022/11/18 05:55:51;;;;;;;11.98;3.38;;;16.30;99.90;;;;;;5004179;28;20053;-70
2022/11/18 05:58:55;;;;;;;7.28;3.53;;;16.30;99.90;;;;;;4989558;28;20395;-70
2022/11/18 06:02:04;;;;;;;9.40;3.47;;;16.40;99.90;;;;;;4993387;28;20057;-70
2022/11/18 06:05:11;;;;;;;8.27;3.47;;;16.50;99.90;;;;;;4993601;28;20061;-71
2022/11/18 06:08:17;;;;;;;9.48;2.90;;;16.60;99.90;;;;;;4993564;28;20054;-70
2022/11/18 06:11:22;;;;;;;16.75;3.72;;;16.60;99.90;;;;;;4993525;28;20050;-70
2022/11/18 06:14:38;;;;;;;13.52;2.72;;;16.60;99.90;;;;;;4993249;28;20053;-71
2022/11/18 06:17:58;;;;;;;12.55;2.75;;;16.70;99.90;;;;;;4993233;28;20050;-70
2022/11/18 06:21:04;;;;;;;10.32;2.90;;;16.70;99.90;;;;;;4993257;28;20209;-70
2022/11/18 06:24:09;;;;;;;17.40;3.22;;;16.80;99.90;;;;;;4992839;28;20038;-70
2022/11/18 06:27:14;;;;;;;17.85;2.67;;;16.90;99.90;;;;;;4993177;28;20045;-70
2022/11/18 06:30:19;;;;;;;16.85;2.97;;;17.20;99.90;;;;;;4993091;28;20057;-70
2022/11/18 06:33:23;;;;;;;17.65;2.30;;;17.30;99.90;;;;;;4993425;28;20072;-73
2022/11/18 06:36:27;;;;;;;23.50;3.78;;;17.40;99.90;;;;;;4992928;28;20390;-71
2022/11/18 06:39:31;;;;;;;10.63;2.20;;;17.60;99.90;;;;;;4992289;28;20060;-70
2022/11/18 06:49:26;;;;;;;20.42;4.28;;;17.70;99.90;;;;;;4992982;28;20045;-70
2022/11/18 06:52:30;;;;;;;32.63;4.57;;;17.80;99.90;;;;;;4993166;28;20053;-70
2022/11/18 06:55:34;;;;;;;16.20;3.38;;;17.90;99.90;;;;;;4992403;28;20497;-71
2022/11/18 06:58:39;;;;;;;21.63;3.83;;;17.90;99.90;;;;;;4992523;28;20061;-72
2022/11/18 07:01:43;;;;;;;18.17;3.85;;;18.00;99.90;;;;;;4992040;28;20065;-71
2022/11/18 07:04:47;;;;;;;33.08;4.78;;;18.00;99.90;;;;;;4990736;28;20049;-69
2022/11/18 07:07:51;;;;;;;39.03;4.90;;;18.00;99.90;;;;;;4992203;28;20053;-70
2022/11/18 07:10:55;;;;;;;22.77;3.85;;;18.10;99.90;;;;;;4991548;28;20053;-69
2022/11/18 07:14:00;;;;;;;19.08;3.45;;;18.10;99.90;;;;;;4991676;28;20122;-69
2022/11/18 07:17:06;;;;;;;18.02;3.30;;;18.20;99.90;;;;;;4990518;28;20504;-70
2022/11/18 07:20:11;;;;;;;20.13;3.90;;;18.20;99.90;;;;;;4992090;28;20049;-67
2022/11/18 07:23:15;;;;;;;21.50;4.10;;;18.20;99.90;;;;;;4991805;28;20050;-68
2022/11/18 07:26:19;;;;;;;31.02;3.85;;;18.20;99.90;;;;;;4992034;28;20049;-69
2022/11/18 07:29:23;;;;;;;16.95;3.40;;;18.20;99.90;;;;;;4991558;28;20053;-70
2022/11/18 07:32:27;;;;;;;24.35;3.80;;;18.20;99.90;;;;;;4991877;28;20052;-70
2022/11/18 07:35:32;;;;;;;24.70;3.47;;;18.30;99.90;;;;;;5001859;28;20053;-71
2022/11/18 07:38:36;;;;;;;23.13;4.10;;;18.20;99.90;;;;;;4990975;28;20053;-70
2022/11/18 07:41:40;;;;;;;12.57;2.83;;;18.20;99.90;;;;;;4991553;28;20045;-71
2022/11/18 07:44:44;;;;;;;12.02;2.83;;;18.20;99.90;;;;;;4991570;28;20631;-69
2022/11/18 07:47:48;;;;;;;16.15;3.50;;;18.20;99.90;;;;;;4991785;28;20065;-72
2022/11/18 07:50:52;;;;;;;20.92;4.32;;;18.20;99.90;;;;;;4991511;28;20045;-71
2022/11/18 07:53:57;;;;;;;28.38;4.40;;;18.40;99.90;;;;;;4991509;28;20045;-72
2022/11/18 07:57:01;;;;;;;21.27;3.90;;;18.50;99.90;;;;;;4991346;28;20505;-70
2022/11/18 08:00:06;;;;;;;36.30;5.35;;;18.60;99.90;;;;;;4991638;28;20069;-68
2022/11/18 08:03:16;;;;;;;24.27;3.92;;;18.60;99.90;;;;;;4989509;28;20049;-68
2022/11/18 08:06:20;;;;;;;20.10;3.15;;;18.60;99.90;;;;;;4990862;28;20049;-71
2022/11/18 08:09:25;;;;;;;19.67;2.80;;;18.70;99.90;;;;;;4990104;28;20046;-70
2022/11/18 08:12:29;;;;;;;19.55;3.25;;;18.80;99.90;;;;;;4990445;28;20049;-69
2022/11/18 08:15:33;;;;;;;20.15;3.50;;;19.10;99.90;;;;;;5001144;28;20049;-70
2022/11/18 08:18:37;;;;;;;16.80;3.20;;;19.30;99.90;;;;;;4990477;28;20642;-70
2022/11/18 08:21:41;;;;;;;21.25;3.67;;;19.50;99.90;;;;;;4991807;28;20057;-71
2022/11/18 08:24:49;;;;;;;16.73;3.53;;;19.60;99.90;;;;;;4991997;28;20037;-68
2022/11/18 08:27:52;;;;;;;14.63;3.25;;;19.70;99.90;;;;;;4991625;28;20042;-72
2022/11/18 08:30:57;;;;;;;16.40;2.78;;;19.60;99.90;;;;;;4991342;28;20053;-72
2022/11/18 08:34:04;;;;;;;16.50;5.88;;;19.60;99.90;;;;;;4991440;28;20095;-73
2022/11/18 08:37:08;;;;;;;29.52;17.38;;;19.50;99.90;;;;;;4991429;28;20074;-73
2022/11/18 08:40:12;;;;;;;20.08;8.20;;;19.50;99.90;;;;;;4991084;28;20049;-71
2022/11/18 08:43:16;;;;;;;27.63;4.15;;;19.70;99.90;;;;;;5001402;28;20045;-70
2022/11/18 08:46:20;;;;;;;32.00;5.88;;;19.90;99.90;;;;;;5002779;28;20072;-70
2022/11/18 08:49:24;;;;;;;30.15;4.32;;;20.20;99.90;;;;;;4994766;28;20418;-72
2022/11/18 08:52:28;;;;;;;27.30;4.75;;;20.50;99.90;;;;;;4994914;28;20045;-72
2022/11/18 08:55:32;;;;;;;34.03;5.18;;;20.70;99.90;;;;;;4994672;28;20065;-71
2022/11/18 08:58:36;;;;;;;27.45;4.18;;;20.90;99.90;;;;;;4994844;28;20398;-72
2022/11/18 09:01:42;;;;;;;13.82;3.55;;;20.80;99.90;;;;;;4994490;28;20058;-71
2022/11/18 09:04:52;;;;;;;15.63;3.17;;;20.80;99.90;;;;;;4995110;28;20497;-69
2022/11/18 09:07:56;;;;;;;24.20;3.60;;;20.80;99.90;;;;;;4994900;28;20053;-70
2022/11/18 09:11:09;;;;;;;18.00;4.90;;;20.80;99.90;;;;;;4994612;28;20385;-73
2022/11/18 09:14:12;;;;;;;27.20;5.95;;;20.70;99.90;;;;;;4994658;28;20054;-74
2022/11/18 09:17:16;;;;;;;19.98;4.15;;;20.80;99.90;;;;;;4994408;28;20520;-70
2022/11/18 09:20:20;;;;;;;28.60;4.38;;;21.00;99.90;;;;;;4994487;28;20398;-70
2022/11/18 09:23:25;;;;;;;22.58;4.35;;;21.20;99.90;;;;;;4994327;28;20049;-71
2022/11/18 09:26:29;;;;;;;37.97;5.07;;;21.40;99.90;;;;;;4993588;28;20582;-72
2022/11/18 09:29:33;;;;;;;30.98;4.63;;;21.60;99.90;;;;;;4993807;28;20045;-71
2022/11/18 09:32:37;;;;;;;42.40;6.00;;;21.70;99.90;;;;;;4994041;28;20049;-72
2022/11/18 09:35:42;;;;;;;31.30;4.57;;;21.80;99.90;;;;;;4994277;28;20068;-74
2022/11/18 09:38:45;;;;;;;30.88;4.88;;;22.00;99.90;;;;;;4993387;28;20049;-72
2022/11/18 09:42:16;;;;;;;33.92;4.97;;;22.20;99.90;;;;;;4992933;28;20435;-70
2022/11/18 09:45:52;;;;;;;32.97;5.63;;;22.40;99.90;;;;;;4994063;28;20041;-71
2022/11/18 09:49:14;;;;;;;31.00;4.40;;;22.50;99.90;;;;;;4993270;28;20526;-74
2022/11/18 09:52:22;;;;;;;43.50;5.13;;;22.50;99.90;;;;;;4993240;28;20228;-74
2022/11/18 09:55:28;;;;;;;33.05;5.88;;;22.60;99.90;;;;;;4993768;28;20049;-69
2022/11/18 09:58:35;;;;;;;55.60;5.57;;;22.80;99.90;;;;;;5003152;28;20046;-72
2022/11/18 10:01:39;;;;;;;32.65;5.53;;;23.00;99.90;;;;;;5003837;28;20209;-71
2022/11/18 10:04:43;;;;;;;30.05;5.38;;;23.10;99.90;;;;;;4993953;28;20041;-71
2022/11/18 10:07:53;;;;;;;39.00;5.70;;;23.30;99.90;;;;;;4993754;28;20061;-72
2022/11/18 10:11:01;;;;;;;33.57;6.27;;;23.40;99.90;;;;;;4993156;28;20406;-72
2022/11/18 10:14:13;;;;;;;39.30;5.43;;;23.30;99.90;;;;;;4993414;28;20394;-71
2022/11/18 10:17:55;;;;;;;37.75;6.28;;;23.40;99.90;;;;;;4993179;28;20053;-70
2022/11/18 10:21:17;;;;;;;;;;;23.40;99.90;;;;;;4993792;28;20053;-73
2022/11/18 10:24:25;;;;;;;26.00;4.97;;;23.40;99.90;;;;;;4993291;28;19909;-71
2022/11/18 10:27:38;;;;;;;31.35;4.85;;;23.40;99.90;;;;;;4993182;28;20045;-71
2022/11/18 10:30:42;;;;;;;33.67;5.93;;;23.40;99.90;;;;;;4993074;28;20061;-69
2022/11/18 10:33:58;;;;;;;33.00;6.25;;;23.50;99.90;;;;;;4993098;28;20394;-69
2022/11/18 10:37:20;;;;;;;24.58;4.97;;;23.50;99.90;;;;;;4993332;28;20050;-71
2022/11/18 10:40:27;;;;;;;33.22;5.93;;;23.30;99.90;;;;;;4992870;28;20668;-72
2022/11/18 10:43:47;;;;;;;42.97;6.10;;;23.40;99.90;;;;;;4993160;28;20386;-70
2022/11/18 10:46:51;;;;;;;33.50;5.47;;;23.50;99.90;;;;;;4992837;28;20049;-71
2022/11/18 10:49:58;;;;;;;31.10;5.43;;;23.60;99.90;;;;;;4993091;28;20509;-72
2022/11/18 10:53:23;;;;;;;30.02;5.53;;;23.50;99.90;;;;;;4992582;28;20504;-70
2022/11/18 10:56:51;;;;;;;43.83;5.85;;;23.50;99.90;;;;;;4992401;28;20488;-69
2022/11/18 10:59:56;;;;;;;30.42;5.05;;;23.30;99.90;;;;;;4992822;28;20061;-68
2022/11/18 11:03:13;;;;;;;31.50;6.78;;;23.20;99.90;;;;;;4992783;28;20402;-73
2022/11/18 11:06:29;;;;;;;29.48;5.85;;;23.00;99.90;;;;;;4992854;28;20409;-70
2022/11/18 11:09:35;;;;;;;42.30;5.32;;;22.70;99.90;;;;;;4991284;28;20042;-70
2022/11/18 11:12:50;;;;;;;36.47;5.47;;;22.70;99.90;;;;;;4992137;28;20053;-68
2022/11/18 11:15:58;;;;;;;44.60;6.85;;;22.70;99.90;;;;;;4991906;28;20069;-70
2022/11/18 11:19:04;;;;;;;28.13;5.88;;;22.60;99.90;;;;;;4992127;28;20049;-70
2022/11/18 11:22:10;;;;;;;39.53;6.20;;;22.50;99.90;;;;;;4991919;28;20057;-69
2022/11/18 11:25:25;;;;;;;40.70;6.80;;;22.30;99.90;;;;;;4992001;28;20042;-69
2022/11/18 11:28:55;;;;;;;26.88;5.30;;;22.20;99.90;;;;;;4991974;28;20157;-69
2022/11/18 11:32:14;;;;;;;41.33;5.63;;;22.10;99.90;;;;;;4991859;28;20054;-68
2022/11/18 11:35:27;;;;;;;30.88;4.82;;;22.10;99.90;;;;;;4992024;28;20049;-73
2022/11/18 11:38:49;;;;;;;22.02;3.70;;;22.00;99.90;;;;;;5002539;28;20042;-73
2022/11/18 11:42:13;;;;;;;18.33;3.05;;;22.00;99.90;;;;;;4991738;28;20049;-73
2022/11/18 11:45:30;;;;;;;15.50;2.83;;;21.90;99.90;;;;;;4992119;28;20041;-71
2022/11/18 11:49:04;;;;;;;14.25;2.92;;;21.80;99.90;;;;;;4991141;28;20049;-71
2022/11/18 11:52:30;;;;;;;19.45;2.80;;;21.70;99.90;;;;;;4991654;28;20046;-71
2022/11/18 11:56:12;;;;;;;20.55;3.05;;;21.70;99.90;;;;;;4991444;28;20066;-71
2022/11/18 11:59:47;;;;;;;15.55;3.08;;;21.60;99.90;;;;;;4991427;28;20041;-72
2022/11/18 12:03:36;;;;;;;24.67;3.38;;;21.60;99.90;;;;;;4991032;28;20065;-72
2022/11/18 12:06:45;;;;;;;18.00;2.85;;;21.70;99.90;;;;;;4990947;28;20045;-72
2022/11/18 12:10:08;;;;;;;15.75;2.58;;;21.80;99.90;;;;;;4991251;28;20194;-71
2022/11/18 12:13:36;;;;;;;12.05;2.50;;;21.70;99.90;;;;;;4991752;28;20061;-69
2022/11/18 12:16:50;;;;;;;16.83;2.88;;;21.80;99.90;;;;;;4991200;28;20042;-72
2022/11/18 12:19:53;;;;;;;15.52;3.55;;;21.70;99.90;;;;;;4991224;28;20072;-71
2022/11/18 12:23:25;;;;;;;28.60;4.07;;;21.60;99.90;;;;;;4995156;28;20046;-69
2022/11/18 12:26:34;;;;;;;23.10;4.35;;;21.40;99.90;;;;;;4994969;28;20046;-69
2022/11/18 12:29:50;;;;;;;19.65;3.50;;;21.20;99.90;;;;;;4994717;28;20049;-70
2022/11/18 12:32:56;;;;;;;25.13;4.30;;;21.10;99.90;;;;;;4995404;28;20058;-68
2022/11/18 12:36:00;;;;;;;22.55;3.88;;;20.90;99.90;;;;;;4995382;28;20037;-70
2022/11/18 12:39:23;;;;;;;16.35;3.55;;;20.80;99.90;;;;;;4995298;28;20044;-72
2022/11/18 12:46:07;;;;;;;17.60;2.97;;;20.90;99.90;;;;;;4995286;28;20536;-70
2022/11/18 12:49:20;;;;;;;17.73;2.92;;;20.80;99.90;;;;;;4993986;28;20041;-71
2022/11/18 12:52:31;;;;;;;11.85;2.95;;;20.90;99.90;;;;;;4994976;28;20053;-72
2022/11/18 12:55:37;;;;;;;16.02;3.92;;;21.00;99.90;;;;;;4994368;28;20065;-72
2022/11/18 12:58:44;;;;;;;11.02;2.38;;;21.00;99.90;;;;;;4994774;28;20046;-74
2022/11/18 13:01:59;;;;;;;13.07;2.75;;;21.00;99.90;;;;;;4994658;28;20053;-74
2022/11/18 13:05:08;;;;;;;13.70;2.90;;;21.00;99.90;;;;;;4994961;28;20058;-72
2022/11/18 13:08:15;;;;;;;19.38;3.55;;;21.00;99.90;;;;;;4994651;28;20069;-71
2022/11/18 13:18:16;;;;;;;16.45;3.40;;;20.90;99.90;;;;;;4995008;28;20065;-71
2022/11/18 13:24:51;;;;;;;19.13;3.22;;;20.90;99.90;;;;;;4994322;28;20049;-72
2022/11/18 13:28:18;;;;;;;25.67;5.22;;;20.90;99.90;;;;;;4994554;28;20410;-69
2022/11/18 13:31:29;;;;;;;22.48;4.20;;;20.90;99.90;;;;;;4994131;28;20049;-73
2022/11/18 13:34:46;;;;;;;20.98;4.25;;;20.90;99.90;;;;;;4993059;28;20049;-72
2022/11/18 13:37:59;;;;;;;23.17;3.55;;;20.90;99.90;;;;;;4994372;28;20041;-73
2022/11/18 13:41:21;;;;;;;19.17;3.22;;;20.80;99.90;;;;;;4994286;28;20114;-71
2022/11/18 13:44:28;;;;;;;17.77;3.78;;;20.80;99.90;;;;;;4993318;28;20106;-71
2022/11/18 13:47:42;;;;;;;24.60;4.20;;;20.70;99.90;;;;;;4994106;28;20402;-71
2022/11/18 13:50:52;;;;;;;23.02;3.30;;;20.70;99.90;;;;;;4994177;28;20045;-71
2022/11/18 13:53:56;;;;;;;21.13;3.73;;;20.70;99.90;;;;;;4994159;28;20049;-73
2022/11/18 13:57:01;;;;;;;20.25;3.65;;;20.60;99.90;;;;;;4993987;28;20046;-71
2022/11/18 14:00:18;;;;;;;27.77;4.38;;;20.60;99.90;;;;;;4994072;28;20049;-71
2022/11/18 14:03:33;;;;;;;16.80;2.95;;;20.60;99.90;;;;;;4993896;28;20057;-70
2022/11/18 14:06:39;;;;;;;21.92;4.03;;;20.50;99.90;;;;;;4993703;28;20371;-69
2022/11/18 14:10:05;;;;;;;23.48;4.15;;;20.50;99.60;;;;;;4993985;28;20053;-69
2022/11/18 14:13:17;;;;;;;22.17;4.38;;;20.50;99.30;;;;;;5003849;28;20045;-73
2022/11/18 14:16:21;;;;;;;23.77;4.22;;;20.40;99.10;;;;;;4991986;28;20065;-73
2022/11/18 14:19:30;;;;;;;20.45;3.33;;;20.40;98.90;;;;;;4993006;28;20053;-73
2022/11/18 14:22:41;;;;;;;14.57;2.67;;;20.40;98.30;;;;;;4993398;28;20057;-72
2022/11/18 14:25:45;;;;;;;15.25;2.92;;;20.30;98.20;;;;;;4993700;28;20041;-71
2022/11/18 14:28:54;;;;;;;25.20;3.85;;;20.30;98.50;;;;;;4993553;28;20054;-72
2022/11/18 14:32:10;;;;;;;32.35;4.72;;;20.20;98.70;;;;;;4973695;28;20050;-72
2022/11/18 14:35:14;;;;;;;31.38;4.63;;;20.20;98.90;;;;;;4973772;28;20049;-73
2022/11/18 14:38:27;;;;;;;21.35;3.83;;;20.10;99.00;;;;;;4973620;28;20042;-72
2022/11/18 14:41:46;;;;;;;22.73;3.65;;;20.10;98.70;;;;;;4972204;28;20513;-73
2022/11/18 14:44:50;;;;;;;32.22;4.15;;;20.10;98.80;;;;;;4973234;28;20058;-73
2022/11/18 14:47:54;;;;;;;30.40;5.63;;;20.00;98.70;;;;;;4973164;28;20073;-72
2022/11/18 14:50:59;;;;;;;23.73;3.75;;;20.00;99.20;;;;;;4973299;28;20058;-73
2022/11/18 14:54:03;;;;;;;35.13;4.35;;;20.00;98.80;;;;;;4983257;28;20045;-74
2022/11/18 14:57:13;;;;;;;23.65;4.10;;;19.90;98.60;;;;;;4973109;28;20046;-73
2022/11/18 15:00:18;;;;;;;31.73;4.40;;;19.90;98.60;;;;;;4972827;28;20058;-72
2022/11/18 15:03:22;;;;;;;22.63;3.55;;;19.80;98.70;;;;;;4973217;28;20415;-70
2022/11/18 15:06:27;;;;;;;22.30;3.83;;;19.80;98.70;;;;;;4973080;28;20053;-71
2022/11/18 15:09:31;;;;;;;28.65;4.70;;;19.80;98.60;;;;;;4973225;28;20493;-71
2022/11/18 15:12:36;;;;;;;32.95;4.57;;;19.80;98.50;;;;;;4973020;28;20042;-71
2022/11/18 15:15:40;;;;;;;30.25;5.47;;;19.70;98.70;;;;;;4972979;28;20069;-71
2022/11/18 15:18:46;;;;;;;37.17;5.35;;;19.70;99.00;;;;;;4972854;28;20050;-71
2022/11/18 15:21:50;;;;;;;37.10;5.35;;;19.70;99.00;;;;;;4972913;28;20050;-72
2022/11/18 15:24:54;;;;;;;29.23;4.70;;;19.60;99.30;;;;;;4972908;28;20395;-72
2022/11/18 15:27:58;;;;;;;44.70;6.93;;;19.60;99.50;;;;;;4972747;28;20050;-74
2022/11/18 15:31:02;;;;;;;32.78;4.03;;;19.50;99.30;;;;;;4985304;28;20062;-68
2022/11/18 15:34:06;;;;;;;40.08;5.50;;;19.50;99.30;;;;;;4992081;28;20049;-67
2022/11/18 15:37:11;;;;;;;34.22;4.95;;;19.50;99.40;;;;;;4992168;28;20045;-68
2022/11/18 15:40:16;;;;;;;29.30;4.85;;;19.40;99.40;;;;;;4991722;28;20037;-69
2022/11/18 15:43:20;;;;;;;27.98;4.75;;;19.40;99.60;;;;;;4991668;28;20069;-69
2022/11/18 15:46:25;;;;;;;41.45;6.05;;;19.30;99.60;;;;;;4992744;28;20053;-68
2022/11/18 15:49:29;;;;;;;32.80;5.07;;;19.30;99.70;;;;;;4991822;28;20077;-68
2022/11/18 15:52:33;;;;;;;29.63;4.53;;;19.20;99.70;;;;;;4991413;28;20046;-69
2022/11/18 15:55:37;;;;;;;25.65;5.18;;;19.20;99.70;;;;;;4991536;28;20049;-72
2022/11/18 15:58:41;;;;;;;39.90;7.32;;;19.20;99.80;;;;;;5002535;28;20037;-69
2022/11/18 16:01:47;;;;;;;43.03;6.90;;;19.10;99.70;;;;;;4992014;28;20057;-70
2022/11/18 16:04:51;;;;;;;31.92;4.95;;;19.00;99.90;;;;;;4991980;28;20053;-70
2022/11/18 16:07:55;;;;;;;44.20;5.85;;;18.90;99.90;;;;;;4991282;28;20509;-70
2022/11/18 16:14:23;;;;;;;39.80;6.43;;;18.90;99.90;;;;;;4991659;28;20053;-70
2022/11/18 16:17:27;;;;;;;39.25;5.95;;;18.90;99.90;;;;;;5002220;28;20045;-69
2022/11/18 16:20:31;;;;;;;38.88;5.72;;;18.80;99.90;;;;;;4991320;28;20061;-69
2022/11/18 16:23:35;;;;;;;37.72;6.65;;;18.70;99.90;;;;;;4991540;28;20065;-69
2022/11/18 16:26:39;;;;;;;55.60;8.07;;;18.70;99.90;;;;;;4991394;28;20409;-72
2022/11/18 16:29:43;;;;;;;32.63;5.90;;;18.70;99.80;;;;;;4991029;28;20509;-69
2022/11/18 16:32:50;;;;;;;37.63;5.57;;;18.70;99.60;;;;;;4990822;28;20049;-69
2022/11/18 16:35:54;;;;;;;29.08;6.55;;;18.60;99.30;;;;;;4991738;28;20049;-72
2022/11/18 16:39:04;;;;;;;33.97;7.80;;;18.60;99.20;;;;;;4991378;28;20045;-71
2022/11/18 16:42:11;;;;;;;37.05;7.93;;;18.60;99.40;;;;;;4991468;28;20065;-69
2022/11/18 16:45:16;;;;;;;35.67;8.27;;;18.50;99.50;;;;;;5001718;28;20639;-72